Aviation Digital Data Service (ADDS)

Output produced by METARs form (1609 UTC 03 June 2020)
found at http://www.aviationweather.gov/metar/data/
 
METAR text: EDDC 031550Z 11008KT 060V140 CAVOK 23/07 Q1003 NOSIG
Conditions at: EDDC (DRESDEN/KLOTZSCH, DE) observed 1550 UTC 03 June 2020
Temperature: 23.0°C (73°F)
Dewpoint: 7.0°C (45°F) [RH = 36%]
Pressure (altimeter): 29.62 inches Hg (1003.0 mb)
Winds: from the ESE (110 degrees) at 9 MPH (8 knots; 4.1 m/s)
Visibility: 6 or more miles (10+ km)
Ceiling: ceiling and visibility are OK
Clouds: unknown
Weather: no significant weather observed at this time

METAR text: EDDC 031520Z 07008KT 030V130 CAVOK 24/08 Q1003 NOSIG
Conditions at: EDDC (DRESDEN/KLOTZSCH, DE) observed 1520 UTC 03 June 2020
Temperature: 24.0°C (75°F)
Dewpoint: 8.0°C (46°F) [RH = 36%]
Pressure (altimeter): 29.62 inches Hg (1003.0 mb)
Winds: from the ENE (70 degrees) at 9 MPH (8 knots; 4.1 m/s)
Visibility: 6 or more miles (10+ km)
Ceiling: ceiling and visibility are OK
Clouds: unknown
Weather: no significant weather observed at this time

METAR text: EDDC 031450Z 11008KT 050V160 CAVOK 24/08 Q1003 NOSIG
Conditions at: EDDC (DRESDEN/KLOTZSCH, DE) observed 1450 UTC 03 June 2020
Temperature: 24.0°C (75°F)
Dewpoint: 8.0°C (46°F) [RH = 36%]
Pressure (altimeter): 29.62 inches Hg (1003.0 mb)
Winds: from the ESE (110 degrees) at 9 MPH (8 knots; 4.1 m/s)
Visibility: 6 or more miles (10+ km)
Ceiling: ceiling and visibility are OK
Clouds: unknown
Weather: no significant weather observed at this time

METAR text: EDDC 031420Z 10007KT 050V140 CAVOK 24/09 Q1003 NOSIG
Conditions at: EDDC (DRESDEN/KLOTZSCH, DE) observed 1420 UTC 03 June 2020
Temperature: 24.0°C (75°F)
Dewpoint: 9.0°C (48°F) [RH = 38%]
Pressure (altimeter): 29.62 inches Hg (1003.0 mb)
Winds: from the E (100 degrees) at 8 MPH (7 knots; 3.6 m/s)
Visibility: 6 or more miles (10+ km)
Ceiling: ceiling and visibility are OK
Clouds: unknown
Weather: no significant weather observed at this time

METAR text: EDDC 031350Z 08008KT 050V130 CAVOK 23/09 Q1004 NOSIG
Conditions at: EDDC (DRESDEN/KLOTZSCH, DE) observed 1350 UTC 03 June 2020
Temperature: 23.0°C (73°F)
Dewpoint: 9.0°C (48°F) [RH = 41%]
Pressure (altimeter): 29.65 inches Hg (1004.0 mb)
Winds: from the E (80 degrees) at 9 MPH (8 knots; 4.1 m/s)
Visibility: 6 or more miles (10+ km)
Ceiling: ceiling and visibility are OK
Clouds: unknown
Weather: no significant weather observed at this time

METAR text: EDDC 031320Z VRB03KT CAVOK 25/09 Q1004 NOSIG
Conditions at: EDDC (DRESDEN/KLOTZSCH, DE) observed 1320 UTC 03 June 2020
Temperature: 25.0°C (77°F)
Dewpoint: 9.0°C (48°F) [RH = 36%]
Pressure (altimeter): 29.65 inches Hg (1004.0 mb)
Winds: variable direction winds at 3 MPH (3 knots; 1.5 m/s)
Visibility: 6 or more miles (10+ km)
Ceiling: ceiling and visibility are OK
Clouds: unknown
Weather: no significant weather observed at this time

METAR text: EDDC 031250Z VRB04KT CAVOK 24/08 Q1005 NOSIG
Conditions at: EDDC (DRESDEN/KLOTZSCH, DE) observed 1250 UTC 03 June 2020
Temperature: 24.0°C (75°F)
Dewpoint: 8.0°C (46°F) [RH = 36%]
Pressure (altimeter): 29.68 inches Hg (1005.0 mb)
Winds: variable direction winds at 5 MPH (4 knots; 2.1 m/s)
Visibility: 6 or more miles (10+ km)
Ceiling: ceiling and visibility are OK
Clouds: unknown
Weather: no significant weather observed at this time

METAR text: EDDC 031220Z 33005KT 250V040 CAVOK 23/08 Q1005 NOSIG
Conditions at: EDDC (DRESDEN/KLOTZSCH, DE) observed 1220 UTC 03 June 2020
Temperature: 23.0°C (73°F)
Dewpoint: 8.0°C (46°F) [RH = 38%]
Pressure (altimeter): 29.68 inches Hg (1005.0 mb)
Winds: from the NNW (330 degrees) at 6 MPH (5 knots; 2.6 m/s)
Visibility: 6 or more miles (10+ km)
Ceiling: ceiling and visibility are OK
Clouds: unknown
Weather: no significant weather observed at this time

METAR text: EDDC 031150Z 32006KT 200V360 CAVOK 23/09 Q1005 NOSIG
Conditions at: EDDC (DRESDEN/KLOTZSCH, DE) observed 1150 UTC 03 June 2020
Temperature: 23.0°C (73°F)
Dewpoint: 9.0°C (48°F) [RH = 41%]
Pressure (altimeter): 29.68 inches Hg (1005.0 mb)
Winds: from the NW (320 degrees) at 7 MPH (6 knots; 3.1 m/s)
Visibility: 6 or more miles (10+ km)
Ceiling: ceiling and visibility are OK
Clouds: unknown
Weather: no significant weather observed at this time

METAR text: EDDC 031120Z VRB03KT CAVOK 23/09 Q1006 NOSIG
Conditions at: EDDC (DRESDEN/KLOTZSCH, DE) observed 1120 UTC 03 June 2020
Temperature: 23.0°C (73°F)
Dewpoint: 9.0°C (48°F) [RH = 41%]
Pressure (altimeter): 29.70 inches Hg (1006.0 mb)
Winds: variable direction winds at 3 MPH (3 knots; 1.5 m/s)
Visibility: 6 or more miles (10+ km)
Ceiling: ceiling and visibility are OK
Clouds: unknown
Weather: no significant weather observed at this time

METAR text: EDDC 031050Z 36006KT 280V090 CAVOK 22/09 Q1006 NOSIG
Conditions at: EDDC (DRESDEN/KLOTZSCH, DE) observed 1050 UTC 03 June 2020
Temperature: 22.0°C (72°F)
Dewpoint: 9.0°C (48°F) [RH = 43%]
Pressure (altimeter): 29.70 inches Hg (1006.0 mb)
Winds: from the N (360 degrees) at 7 MPH (6 knots; 3.1 m/s)
Visibility: 6 or more miles (10+ km)
Ceiling: ceiling and visibility are OK
Clouds: unknown
Weather: no significant weather observed at this time

METAR text: EDDC 031020Z VRB06KT 9999 FEW043 22/11 Q1006 NOSIG
Conditions at: EDDC (DRESDEN/KLOTZSCH, DE) observed 1020 UTC 03 June 2020
Temperature: 22.0°C (72°F)
Dewpoint: 11.0°C (52°F) [RH = 50%]
Pressure (altimeter): 29.70 inches Hg (1006.0 mb)
Winds: variable direction winds at 7 MPH (6 knots; 3.1 m/s)
Visibility: 6 or more miles (10+ km)
Ceiling: at least 12,000 feet AGL
Clouds: few clouds at 4300 feet AGL
Weather: no significant weather observed at this time

METAR text: EDDC 030950Z VRB05KT 9999 FEW033 21/11 Q1007 NOSIG
Conditions at: EDDC (DRESDEN/KLOTZSCH, DE) observed 0950 UTC 03 June 2020
Temperature: 21.0°C (70°F)
Dewpoint: 11.0°C (52°F) [RH = 53%]
Pressure (altimeter): 29.73 inches Hg (1007.0 mb)
Winds: variable direction winds at 6 MPH (5 knots; 2.6 m/s)
Visibility: 6 or more miles (10+ km)
Ceiling: at least 12,000 feet AGL
Clouds: few clouds at 3300 feet AGL
Weather: no significant weather observed at this time

METAR text: EDDC 030920Z 36006KT 300V060 CAVOK 21/11 Q1007 NOSIG
Conditions at: EDDC (DRESDEN/KLOTZSCH, DE) observed 0920 UTC 03 June 2020
Temperature: 21.0°C (70°F)
Dewpoint: 11.0°C (52°F) [RH = 53%]
Pressure (altimeter): 29.73 inches Hg (1007.0 mb)
Winds: from the N (360 degrees) at 7 MPH (6 knots; 3.1 m/s)
Visibility: 6 or more miles (10+ km)
Ceiling: ceiling and visibility are OK
Clouds: unknown
Weather: no significant weather observed at this time

METAR text: EDDC 030850Z VRB04KT CAVOK 21/13 Q1007 NOSIG
Conditions at: EDDC (DRESDEN/KLOTZSCH, DE) observed 0850 UTC 03 June 2020
Temperature: 21.0°C (70°F)
Dewpoint: 13.0°C (55°F) [RH = 60%]
Pressure (altimeter): 29.73 inches Hg (1007.0 mb)
Winds: variable direction winds at 5 MPH (4 knots; 2.1 m/s)
Visibility: 6 or more miles (10+ km)
Ceiling: ceiling and visibility are OK
Clouds: unknown
Weather: no significant weather observed at this time

METAR text: EDDC 030820Z VRB04KT CAVOK 20/13 Q1007 NOSIG
Conditions at: EDDC (DRESDEN/KLOTZSCH, DE) observed 0820 UTC 03 June 2020
Temperature: 20.0°C (68°F)
Dewpoint: 13.0°C (55°F) [RH = 64%]
Pressure (altimeter): 29.73 inches Hg (1007.0 mb)
Winds: variable direction winds at 5 MPH (4 knots; 2.1 m/s)
Visibility: 6 or more miles (10+ km)
Ceiling: ceiling and visibility are OK
Clouds: unknown
Weather: no significant weather observed at this time

METAR text: EDDC 030750Z 33003KT 250V060 CAVOK 19/12 Q1007 NOSIG
Conditions at: EDDC (DRESDEN/KLOTZSCH, DE) observed 0750 UTC 03 June 2020
Temperature: 19.0°C (66°F)
Dewpoint: 12.0°C (54°F) [RH = 64%]
Pressure (altimeter): 29.73 inches Hg (1007.0 mb)
Winds: from the NNW (330 degrees) at 3 MPH (3 knots; 1.5 m/s)
Visibility: 6 or more miles (10+ km)
Ceiling: ceiling and visibility are OK
Clouds: unknown
Weather: no significant weather observed at this time

METAR text: EDDC 030720Z VRB03KT CAVOK 18/12 Q1008 NOSIG
Conditions at: EDDC (DRESDEN/KLOTZSCH, DE) observed 0720 UTC 03 June 2020
Temperature: 18.0°C (64°F)
Dewpoint: 12.0°C (54°F) [RH = 68%]
Pressure (altimeter): 29.76 inches Hg (1008.0 mb)
Winds: variable direction winds at 3 MPH (3 knots; 1.5 m/s)
Visibility: 6 or more miles (10+ km)
Ceiling: ceiling and visibility are OK
Clouds: unknown
Weather: no significant weather observed at this time

METAR text: EDDC 030650Z VRB02KT CAVOK 17/11 Q1008 NOSIG
Conditions at: EDDC (DRESDEN/KLOTZSCH, DE) observed 0650 UTC 03 June 2020
Temperature: 17.0°C (63°F)
Dewpoint: 11.0°C (52°F) [RH = 68%]
Pressure (altimeter): 29.76 inches Hg (1008.0 mb)
Winds: variable direction winds at 2 MPH (2 knots; 1.0 m/s)
Visibility: 6 or more miles (10+ km)
Ceiling: ceiling and visibility are OK
Clouds: unknown
Weather: no significant weather observed at this time

METAR text: EDDC 030620Z 31003KT 270V360 CAVOK 17/12 Q1008 NOSIG
Conditions at: EDDC (DRESDEN/KLOTZSCH, DE) observed 0620 UTC 03 June 2020
Temperature: 17.0°C (63°F)
Dewpoint: 12.0°C (54°F) [RH = 72%]
Pressure (altimeter): 29.76 inches Hg (1008.0 mb)
Winds: from the NW (310 degrees) at 3 MPH (3 knots; 1.5 m/s)
Visibility: 6 or more miles (10+ km)
Ceiling: ceiling and visibility are OK
Clouds: unknown
Weather: no significant weather observed at this time

METAR text: EDDC 030550Z VRB02KT CAVOK 16/12 Q1008 NOSIG
Conditions at: EDDC (DRESDEN/KLOTZSCH, DE) observed 0550 UTC 03 June 2020
Temperature: 16.0°C (61°F)
Dewpoint: 12.0°C (54°F) [RH = 77%]
Pressure (altimeter): 29.76 inches Hg (1008.0 mb)
Winds: variable direction winds at 2 MPH (2 knots; 1.0 m/s)
Visibility: 6 or more miles (10+ km)
Ceiling: ceiling and visibility are OK
Clouds: unknown
Weather: no significant weather observed at this time

METAR text: EDDC 030520Z VRB02KT CAVOK 15/12 Q1008 NOSIG
Conditions at: EDDC (DRESDEN/KLOTZSCH, DE) observed 0520 UTC 03 June 2020
Temperature: 15.0°C (59°F)
Dewpoint: 12.0°C (54°F) [RH = 82%]
Pressure (altimeter): 29.76 inches Hg (1008.0 mb)
Winds: variable direction winds at 2 MPH (2 knots; 1.0 m/s)
Visibility: 6 or more miles (10+ km)
Ceiling: ceiling and visibility are OK
Clouds: unknown
Weather: no significant weather observed at this time

METAR text: EDDC 030450Z 21003KT CAVOK 13/11 Q1008 NOSIG
Conditions at: EDDC (DRESDEN/KLOTZSCH, DE) observed 0450 UTC 03 June 2020
Temperature: 13.0°C (55°F)
Dewpoint: 11.0°C (52°F) [RH = 88%]
Pressure (altimeter): 29.76 inches Hg (1008.0 mb)
Winds: from the SSW (210 degrees) at 3 MPH (3 knots; 1.5 m/s)
Visibility: 6 or more miles (10+ km)
Ceiling: ceiling and visibility are OK
Clouds: unknown
Weather: no significant weather observed at this time

METAR text: EDDC 030420Z 22004KT CAVOK 11/11 Q1008 NOSIG
Conditions at: EDDC (DRESDEN/KLOTZSCH, DE) observed 0420 UTC 03 June 2020
Temperature: 11.0°C (52°F)
Dewpoint: 11.0°C (52°F) [RH = 100%]
Pressure (altimeter): 29.76 inches Hg (1008.0 mb)
Winds: from the SW (220 degrees) at 5 MPH (4 knots; 2.1 m/s)
Visibility: 6 or more miles (10+ km)
Ceiling: ceiling and visibility are OK
Clouds: unknown
Weather: no significant weather observed at this time

METAR text: EDDC 030350Z 22004KT CAVOK 11/10 Q1008 NOSIG
Conditions at: EDDC (DRESDEN/KLOTZSCH, DE) observed 0350 UTC 03 June 2020
Temperature: 11.0°C (52°F)
Dewpoint: 10.0°C (50°F) [RH = 94%]
Pressure (altimeter): 29.76 inches Hg (1008.0 mb)
Winds: from the SW (220 degrees) at 5 MPH (4 knots; 2.1 m/s)
Visibility: 6 or more miles (10+ km)
Ceiling: ceiling and visibility are OK
Clouds: unknown
Weather: no significant weather observed at this time

METAR text: EDDC 030320Z 23003KT CAVOK 10/10 Q1008
Conditions at: EDDC (DRESDEN/KLOTZSCH, DE) observed 0320 UTC 03 June 2020
Temperature: 10.0°C (50°F)
Dewpoint: 10.0°C (50°F) [RH = 100%]
Pressure (altimeter): 29.76 inches Hg (1008.0 mb)
Winds: from the SW (230 degrees) at 3 MPH (3 knots; 1.5 m/s)
Visibility: 6 or more miles (10+ km)
Ceiling: ceiling and visibility are OK
Clouds: unknown
Weather: no significant weather observed at this time

METAR text: EDDC 030250Z VRB02KT CAVOK 11/10 Q1009
Conditions at: EDDC (DRESDEN/KLOTZSCH, DE) observed 0250 UTC 03 June 2020
Temperature: 11.0°C (52°F)
Dewpoint: 10.0°C (50°F) [RH = 94%]
Pressure (altimeter): 29.79 inches Hg (1009.0 mb)
Winds: variable direction winds at 2 MPH (2 knots; 1.0 m/s)
Visibility: 6 or more miles (10+ km)
Ceiling: ceiling and visibility are OK
Clouds: unknown
Weather: no significant weather observed at this time

METAR text: EDDC 030220Z 09002KT CAVOK 11/11 Q1009
Conditions at: EDDC (DRESDEN/KLOTZSCH, DE) observed 0220 UTC 03 June 2020
Temperature: 11.0°C (52°F)
Dewpoint: 11.0°C (52°F) [RH = 100%]
Pressure (altimeter): 29.79 inches Hg (1009.0 mb)
Winds: from the E (90 degrees) at 2 MPH (2 knots; 1.0 m/s)
Visibility: 6 or more miles (10+ km)
Ceiling: ceiling and visibility are OK
Clouds: unknown
Weather: no significant weather observed at this time

METAR text: EDDC 030150Z VRB02KT CAVOK 11/11 Q1009
Conditions at: EDDC (DRESDEN/KLOTZSCH, DE) observed 0150 UTC 03 June 2020
Temperature: 11.0°C (52°F)
Dewpoint: 11.0°C (52°F) [RH = 100%]
Pressure (altimeter): 29.79 inches Hg (1009.0 mb)
Winds: variable direction winds at 2 MPH (2 knots; 1.0 m/s)
Visibility: 6 or more miles (10+ km)
Ceiling: ceiling and visibility are OK
Clouds: unknown
Weather: no significant weather observed at this time

METAR text: EDDC 030120Z 22006KT CAVOK 11/11 Q1009
Conditions at: EDDC (DRESDEN/KLOTZSCH, DE) observed 0120 UTC 03 June 2020
Temperature: 11.0°C (52°F)
Dewpoint: 11.0°C (52°F) [RH = 100%]
Pressure (altimeter): 29.79 inches Hg (1009.0 mb)
Winds: from the SW (220 degrees) at 7 MPH (6 knots; 3.1 m/s)
Visibility: 6 or more miles (10+ km)
Ceiling: ceiling and visibility are OK
Clouds: unknown
Weather: no significant weather observed at this time

METAR text: EDDC 030050Z 22006KT CAVOK 11/11 Q1009
Conditions at: EDDC (DRESDEN/KLOTZSCH, DE) observed 0050 UTC 03 June 2020
Temperature: 11.0°C (52°F)
Dewpoint: 11.0°C (52°F) [RH = 100%]
Pressure (altimeter): 29.79 inches Hg (1009.0 mb)
Winds: from the SW (220 degrees) at 7 MPH (6 knots; 3.1 m/s)
Visibility: 6 or more miles (10+ km)
Ceiling: ceiling and visibility are OK
Clouds: unknown
Weather: no significant weather observed at this time

METAR text: EDDC 030020Z 19003KT CAVOK 12/11 Q1010
Conditions at: EDDC (DRESDEN/KLOTZSCH, DE) observed 0020 UTC 03 June 2020
Temperature: 12.0°C (54°F)
Dewpoint: 11.0°C (52°F) [RH = 94%]
Pressure (altimeter): 29.82 inches Hg (1010.0 mb)
Winds: from the S (190 degrees) at 3 MPH (3 knots; 1.5 m/s)
Visibility: 6 or more miles (10+ km)
Ceiling: ceiling and visibility are OK
Clouds: unknown
Weather: no significant weather observed at this time

METAR text: EDDC 022350Z 09003KT CAVOK 13/11 Q1010
Conditions at: EDDC (DRESDEN/KLOTZSCH, DE) observed 2350 UTC 02 June 2020
Temperature: 13.0°C (55°F)
Dewpoint: 11.0°C (52°F) [RH = 88%]
Pressure (altimeter): 29.82 inches Hg (1010.0 mb)
Winds: from the E (90 degrees) at 3 MPH (3 knots; 1.5 m/s)
Visibility: 6 or more miles (10+ km)
Ceiling: ceiling and visibility are OK
Clouds: unknown
Weather: no significant weather observed at this time

METAR text: EDDC 022320Z VRB02KT CAVOK 12/12 Q1011
Conditions at: EDDC (DRESDEN/KLOTZSCH, DE) observed 2320 UTC 02 June 2020
Temperature: 12.0°C (54°F)
Dewpoint: 12.0°C (54°F) [RH = 100%]
Pressure (altimeter): 29.85 inches Hg (1011.0 mb)
Winds: variable direction winds at 2 MPH (2 knots; 1.0 m/s)
Visibility: 6 or more miles (10+ km)
Ceiling: ceiling and visibility are OK
Clouds: unknown
Weather: no significant weather observed at this time

METAR text: EDDC 022250Z 22003KT CAVOK 13/12 Q1011
Conditions at: EDDC (DRESDEN/KLOTZSCH, DE) observed 2250 UTC 02 June 2020
Temperature: 13.0°C (55°F)
Dewpoint: 12.0°C (54°F) [RH = 94%]
Pressure (altimeter): 29.85 inches Hg (1011.0 mb)
Winds: from the SW (220 degrees) at 3 MPH (3 knots; 1.5 m/s)
Visibility: 6 or more miles (10+ km)
Ceiling: ceiling and visibility are OK
Clouds: unknown
Weather: no significant weather observed at this time

METAR text: EDDC 022220Z 22003KT CAVOK 13/11 Q1011
Conditions at: EDDC (DRESDEN/KLOTZSCH, DE) observed 2220 UTC 02 June 2020
Temperature: 13.0°C (55°F)
Dewpoint: 11.0°C (52°F) [RH = 88%]
Pressure (altimeter): 29.85 inches Hg (1011.0 mb)
Winds: from the SW (220 degrees) at 3 MPH (3 knots; 1.5 m/s)
Visibility: 6 or more miles (10+ km)
Ceiling: ceiling and visibility are OK
Clouds: unknown
Weather: no significant weather observed at this time

METAR text: EDDC 022150Z 23003KT CAVOK 14/11 Q1011
Conditions at: EDDC (DRESDEN/KLOTZSCH, DE) observed 2150 UTC 02 June 2020
Temperature: 14.0°C (57°F)
Dewpoint: 11.0°C (52°F) [RH = 82%]
Pressure (altimeter): 29.85 inches Hg (1011.0 mb)
Winds: from the SW (230 degrees) at 3 MPH (3 knots; 1.5 m/s)
Visibility: 6 or more miles (10+ km)
Ceiling: ceiling and visibility are OK
Clouds: unknown
Weather: no significant weather observed at this time

METAR text: EDDC 022120Z 22008KT CAVOK 14/11 Q1011
Conditions at: EDDC (DRESDEN/KLOTZSCH, DE) observed 2120 UTC 02 June 2020
Temperature: 14.0°C (57°F)
Dewpoint: 11.0°C (52°F) [RH = 82%]
Pressure (altimeter): 29.85 inches Hg (1011.0 mb)
Winds: from the SW (220 degrees) at 9 MPH (8 knots; 4.1 m/s)
Visibility: 6 or more miles (10+ km)
Ceiling: ceiling and visibility are OK
Clouds: unknown
Weather: no significant weather observed at this time

METAR text: EDDC 022050Z 23008KT CAVOK 14/12 Q1012
Conditions at: EDDC (DRESDEN/KLOTZSCH, DE) observed 2050 UTC 02 June 2020
Temperature: 14.0°C (57°F)
Dewpoint: 12.0°C (54°F) [RH = 88%]
Pressure (altimeter): 29.88 inches Hg (1012.0 mb)
Winds: from the SW (230 degrees) at 9 MPH (8 knots; 4.1 m/s)
Visibility: 6 or more miles (10+ km)
Ceiling: ceiling and visibility are OK
Clouds: unknown
Weather: no significant weather observed at this time

METAR text: EDDC 022020Z 22009KT 9999 FEW050CB 15/12 Q1012 RETS
Conditions at: EDDC (DRESDEN/KLOTZSCH, DE) observed 2020 UTC 02 June 2020
Temperature: 15.0°C (59°F)
Dewpoint: 12.0°C (54°F) [RH = 82%]
Pressure (altimeter): 29.88 inches Hg (1012.0 mb)
Winds: from the SW (220 degrees) at 10 MPH (9 knots; 4.6 m/s)
Visibility: 6 or more miles (10+ km)
Ceiling: at least 12,000 feet AGL
Clouds: few clouds at 5000 feet AGL
Weather: no significant weather observed at this time

METAR text: EDDC 021950Z 24010KT 210V270 9999 -TSRA BKN050CB 15/13 Q1012 BECMG NSW
Conditions at: EDDC (DRESDEN/KLOTZSCH, DE) observed 1950 UTC 02 June 2020
Temperature: 15.0°C (59°F)
Dewpoint: 13.0°C (55°F) [RH = 88%]
Pressure (altimeter): 29.88 inches Hg (1012.0 mb)
Winds: from the WSW (240 degrees) at 12 MPH (10 knots; 5.1 m/s)
Visibility: 6 or more miles (10+ km)
Ceiling: 5000 feet AGL
Clouds: broken clouds at 5000 feet AGL
Weather: -TSRA  (light rain associated with thunderstorm(s))

METAR text: EDDC 021920Z 17005KT 100V210 9999 FEW050CB 15/13 Q1012 TEMPO 36015G30KT SHRA
Conditions at: EDDC (DRESDEN/KLOTZSCH, DE) observed 1920 UTC 02 June 2020
Temperature: 15.0°C (59°F)
Dewpoint: 13.0°C (55°F) [RH = 88%]
Pressure (altimeter): 29.88 inches Hg (1012.0 mb)
Winds: from the S (170 degrees) at 6 MPH (5 knots; 2.6 m/s)
Visibility: 6 or more miles (10+ km)
Ceiling: at least 12,000 feet AGL
Clouds: few clouds at 5000 feet AGL
Weather: no significant weather observed at this time

METAR text: EDDC 021850Z 21010KT 9999 FEW033 FEW050CB 15/13 Q1012 NOSIG
Conditions at: EDDC (DRESDEN/KLOTZSCH, DE) observed 1850 UTC 02 June 2020
Temperature: 15.0°C (59°F)
Dewpoint: 13.0°C (55°F) [RH = 88%]
Pressure (altimeter): 29.88 inches Hg (1012.0 mb)
Winds: from the SSW (210 degrees) at 12 MPH (10 knots; 5.1 m/s)
Visibility: 6 or more miles (10+ km)
Ceiling: at least 12,000 feet AGL
Clouds: few clouds at 3300 feet AGL
few clouds at 5000 feet AGL
Weather: no significant weather observed at this time

METAR text: EDDC 021820Z 21009KT 190V260 9999 VCSH FEW033 SCT050CB 15/13 Q1013 NOSIG
Conditions at: EDDC (DRESDEN/KLOTZSCH, DE) observed 1820 UTC 02 June 2020
Temperature: 15.0°C (59°F)
Dewpoint: 13.0°C (55°F) [RH = 88%]
Pressure (altimeter): 29.91 inches Hg (1013.0 mb)
Winds: from the SSW (210 degrees) at 10 MPH (9 knots; 4.6 m/s)
Visibility: 6 or more miles (10+ km)
Ceiling: at least 12,000 feet AGL
Clouds: few clouds at 3300 feet AGL
scattered clouds at 5000 feet AGL
Weather: VCSH  (showers in vicinity)

METAR text: EDDC 021750Z 18012KT 9999 VCSH SCT050CB 15/13 Q1013 TEMPO SHRA
Conditions at: EDDC (DRESDEN/KLOTZSCH, DE) observed 1750 UTC 02 June 2020
Temperature: 15.0°C (59°F)
Dewpoint: 13.0°C (55°F) [RH = 88%]
Pressure (altimeter): 29.91 inches Hg (1013.0 mb)
Winds: from the S (180 degrees) at 14 MPH (12 knots; 6.2 m/s)
Visibility: 6 or more miles (10+ km)
Ceiling: at least 12,000 feet AGL
Clouds: scattered clouds at 5000 feet AGL
Weather: VCSH  (showers in vicinity)

METAR text: EDDC 021720Z 18011KT 9999 -SHRA FEW033 SCT046CB 15/14 Q1013 RESHRA NOSIG
Conditions at: EDDC (DRESDEN/KLOTZSCH, DE) observed 1720 UTC 02 June 2020
Temperature: 15.0°C (59°F)
Dewpoint: 14.0°C (57°F) [RH = 94%]
Pressure (altimeter): 29.91 inches Hg (1013.0 mb)
Winds: from the S (180 degrees) at 13 MPH (11 knots; 5.7 m/s)
Visibility: 6 or more miles (10+ km)
Ceiling: at least 12,000 feet AGL
Clouds: few clouds at 3300 feet AGL
scattered clouds at 4600 feet AGL
Weather: -SHRA  (light rain showers)

METAR text: EDDC 021650Z 14006KT 090V160 9999 FEW033 SCT050CB 16/13 Q1014 TEMPO SHRA
Conditions at: EDDC (DRESDEN/KLOTZSCH, DE) observed 1650 UTC 02 June 2020
Temperature: 16.0°C (61°F)
Dewpoint: 13.0°C (55°F) [RH = 82%]
Pressure (altimeter): 29.94 inches Hg (1014.0 mb)
Winds: from the SE (140 degrees) at 7 MPH (6 knots; 3.1 m/s)
Visibility: 6 or more miles (10+ km)
Ceiling: at least 12,000 feet AGL
Clouds: few clouds at 3300 feet AGL
scattered clouds at 5000 feet AGL
Weather: no significant weather observed at this time

METAR text: EDDC 021620Z 09009KT 070V130 9999 FEW035 SCT050CB 17/14 Q1014 RETS NOSIG
Conditions at: EDDC (DRESDEN/KLOTZSCH, DE) observed 1620 UTC 02 June 2020
Temperature: 17.0°C (63°F)
Dewpoint: 14.0°C (57°F) [RH = 82%]
Pressure (altimeter): 29.94 inches Hg (1014.0 mb)
Winds: from the E (90 degrees) at 10 MPH (9 knots; 4.6 m/s)
Visibility: 6 or more miles (10+ km)
Ceiling: at least 12,000 feet AGL
Clouds: few clouds at 3500 feet AGL
scattered clouds at 5000 feet AGL
Weather: no significant weather observed at this time

METAR text: EDDC 021550Z 18003KT 150V320 9999 VCTS FEW030 BKN050CB 17/14 Q1014 NOSIG
Conditions at: EDDC (DRESDEN/KLOTZSCH, DE) observed 1550 UTC 02 June 2020
Temperature: 17.0°C (63°F)
Dewpoint: 14.0°C (57°F) [RH = 82%]
Pressure (altimeter): 29.94 inches Hg (1014.0 mb)
Winds: from the S (180 degrees) at 3 MPH (3 knots; 1.5 m/s)
Visibility: 6 or more miles (10+ km)
Ceiling: 5000 feet AGL
Clouds: few clouds at 3000 feet AGL
broken clouds at 5000 feet AGL
Weather: VCTS  (thunderstorm in vicinity)

METAR text: EDDC 021520Z 02016G29KT 350V060 1500 +TSRA SCT030CB 18/12 Q1015 TEMPO 6000 NSW
Conditions at: EDDC (DRESDEN/KLOTZSCH, DE) observed 1520 UTC 02 June 2020
Temperature: 18.0°C (64°F)
Dewpoint: 12.0°C (54°F) [RH = 68%]
Pressure (altimeter): 29.97 inches Hg (1015.0 mb)
Winds: from the NNE (20 degrees) at 18 MPH (16 knots; 8.2 m/s)
gusting to 33 MPH (29 knots; 14.9 m/s)
Visibility: 0.93 miles (1.50 km)
Ceiling: at least 12,000 feet AGL
Clouds: scattered clouds at 3000 feet AGL
Weather: +TSRA  (heavy rain associated with thunderstorm(s))

METAR text: EDDC 021450Z 23007KT 190V280 9999 VCTS SCT030CB 23/10 Q1014 TEMPO 27015G25KT 2000 TSGRRA
Conditions at: EDDC (DRESDEN/KLOTZSCH, DE) observed 1450 UTC 02 June 2020
Temperature: 23.0°C (73°F)
Dewpoint: 10.0°C (50°F) [RH = 44%]
Pressure (altimeter): 29.94 inches Hg (1014.0 mb)
Winds: from the SW (230 degrees) at 8 MPH (7 knots; 3.6 m/s)
Visibility: 6 or more miles (10+ km)
Ceiling: at least 12,000 feet AGL
Clouds: scattered clouds at 3000 feet AGL
Weather: VCTS  (thunderstorm in vicinity)

METAR text: EDDC 021420Z VRB04KT CAVOK 23/08 Q1014 NOSIG
Conditions at: EDDC (DRESDEN/KLOTZSCH, DE) observed 1420 UTC 02 June 2020
Temperature: 23.0°C (73°F)
Dewpoint: 8.0°C (46°F) [RH = 38%]
Pressure (altimeter): 29.94 inches Hg (1014.0 mb)
Winds: variable direction winds at 5 MPH (4 knots; 2.1 m/s)
Visibility: 6 or more miles (10+ km)
Ceiling: ceiling and visibility are OK
Clouds: unknown
Weather: no significant weather observed at this time

METAR text: EDDC 021350Z 12005KT 040V200 CAVOK 23/09 Q1015 NOSIG
Conditions at: EDDC (DRESDEN/KLOTZSCH, DE) observed 1350 UTC 02 June 2020
Temperature: 23.0°C (73°F)
Dewpoint: 9.0°C (48°F) [RH = 41%]
Pressure (altimeter): 29.97 inches Hg (1015.0 mb)
Winds: from the ESE (120 degrees) at 6 MPH (5 knots; 2.6 m/s)
Visibility: 6 or more miles (10+ km)
Ceiling: ceiling and visibility are OK
Clouds: unknown
Weather: no significant weather observed at this time

METAR text: EDDC 021320Z 13005KT 060V170 CAVOK 23/09 Q1016 NOSIG
Conditions at: EDDC (DRESDEN/KLOTZSCH, DE) observed 1320 UTC 02 June 2020
Temperature: 23.0°C (73°F)
Dewpoint: 9.0°C (48°F) [RH = 41%]
Pressure (altimeter): 30.00 inches Hg (1016.0 mb)
Winds: from the SE (130 degrees) at 6 MPH (5 knots; 2.6 m/s)
Visibility: 6 or more miles (10+ km)
Ceiling: ceiling and visibility are OK
Clouds: unknown
Weather: no significant weather observed at this time

METAR text: EDDC 021250Z 33005KT 220V020 9999 FEW061CB 23/08 Q1016 NOSIG
Conditions at: EDDC (DRESDEN/KLOTZSCH, DE) observed 1250 UTC 02 June 2020
Temperature: 23.0°C (73°F)
Dewpoint: 8.0°C (46°F) [RH = 38%]
Pressure (altimeter): 30.00 inches Hg (1016.0 mb)
Winds: from the NNW (330 degrees) at 6 MPH (5 knots; 2.6 m/s)
Visibility: 6 or more miles (10+ km)
Ceiling: at least 12,000 feet AGL
Clouds: few clouds at 6100 feet AGL
Weather: no significant weather observed at this time

METAR text: EDDC 021220Z 34009KT 280V020 9999 VCSH BKN063CB 22/08 Q1016 NOSIG
Conditions at: EDDC (DRESDEN/KLOTZSCH, DE) observed 1220 UTC 02 June 2020
Temperature: 22.0°C (72°F)
Dewpoint: 8.0°C (46°F) [RH = 41%]
Pressure (altimeter): 30.00 inches Hg (1016.0 mb)
Winds: from the NNW (340 degrees) at 10 MPH (9 knots; 4.6 m/s)
Visibility: 6 or more miles (10+ km)
Ceiling: 6300 feet AGL
Clouds: broken clouds at 6300 feet AGL
Weather: VCSH  (showers in vicinity)

METAR text: EDDC 021150Z 30008KT 230V010 CAVOK 23/09 Q1017 NOSIG
Conditions at: EDDC (DRESDEN/KLOTZSCH, DE) observed 1150 UTC 02 June 2020
Temperature: 23.0°C (73°F)
Dewpoint: 9.0°C (48°F) [RH = 41%]
Pressure (altimeter): 30.03 inches Hg (1017.0 mb)
Winds: from the WNW (300 degrees) at 9 MPH (8 knots; 4.1 m/s)
Visibility: 6 or more miles (10+ km)
Ceiling: ceiling and visibility are OK
Clouds: unknown
Weather: no significant weather observed at this time

METAR text: EDDC 021120Z 35007KT 280V050 CAVOK 22/08 Q1017 NOSIG
Conditions at: EDDC (DRESDEN/KLOTZSCH, DE) observed 1120 UTC 02 June 2020
Temperature: 22.0°C (72°F)
Dewpoint: 8.0°C (46°F) [RH = 41%]
Pressure (altimeter): 30.03 inches Hg (1017.0 mb)
Winds: from the N (350 degrees) at 8 MPH (7 knots; 3.6 m/s)
Visibility: 6 or more miles (10+ km)
Ceiling: ceiling and visibility are OK
Clouds: unknown
Weather: no significant weather observed at this time

METAR text: EDDC 021050Z VRB07KT CAVOK 22/08 Q1018 NOSIG
Conditions at: EDDC (DRESDEN/KLOTZSCH, DE) observed 1050 UTC 02 June 2020
Temperature: 22.0°C (72°F)
Dewpoint: 8.0°C (46°F) [RH = 41%]
Pressure (altimeter): 30.06 inches Hg (1018.0 mb)
Winds: variable direction winds at 8 MPH (7 knots; 3.6 m/s)
Visibility: 6 or more miles (10+ km)
Ceiling: ceiling and visibility are OK
Clouds: unknown
Weather: no significant weather observed at this time

METAR text: EDDC 021020Z 35008KT 320V080 CAVOK 21/08 Q1018 NOSIG
Conditions at: EDDC (DRESDEN/KLOTZSCH, DE) observed 1020 UTC 02 June 2020
Temperature: 21.0°C (70°F)
Dewpoint: 8.0°C (46°F) [RH = 43%]
Pressure (altimeter): 30.06 inches Hg (1018.0 mb)
Winds: from the N (350 degrees) at 9 MPH (8 knots; 4.1 m/s)
Visibility: 6 or more miles (10+ km)
Ceiling: ceiling and visibility are OK
Clouds: unknown
Weather: no significant weather observed at this time

METAR text: EDDC 020950Z 33006KT 260V020 CAVOK 20/09 Q1018 NOSIG
Conditions at: EDDC (DRESDEN/KLOTZSCH, DE) observed 0950 UTC 02 June 2020
Temperature: 20.0°C (68°F)
Dewpoint: 9.0°C (48°F) [RH = 49%]
Pressure (altimeter): 30.06 inches Hg (1018.0 mb)
Winds: from the NNW (330 degrees) at 7 MPH (6 knots; 3.1 m/s)
Visibility: 6 or more miles (10+ km)
Ceiling: ceiling and visibility are OK
Clouds: unknown
Weather: no significant weather observed at this time

METAR text: EDDC 020920Z 31005KT 230V360 CAVOK 19/07 Q1019 NOSIG
Conditions at: EDDC (DRESDEN/KLOTZSCH, DE) observed 0920 UTC 02 June 2020
Temperature: 19.0°C (66°F)
Dewpoint: 7.0°C (45°F) [RH = 46%]
Pressure (altimeter): 30.09 inches Hg (1019.0 mb)
Winds: from the NW (310 degrees) at 6 MPH (5 knots; 2.6 m/s)
Visibility: 6 or more miles (10+ km)
Ceiling: ceiling and visibility are OK
Clouds: unknown
Weather: no significant weather observed at this time

METAR text: EDDC 020850Z 36006KT 310V070 CAVOK 19/08 Q1019 NOSIG
Conditions at: EDDC (DRESDEN/KLOTZSCH, DE) observed 0850 UTC 02 June 2020
Temperature: 19.0°C (66°F)
Dewpoint: 8.0°C (46°F) [RH = 49%]
Pressure (altimeter): 30.09 inches Hg (1019.0 mb)
Winds: from the N (360 degrees) at 7 MPH (6 knots; 3.1 m/s)
Visibility: 6 or more miles (10+ km)
Ceiling: ceiling and visibility are OK
Clouds: unknown
Weather: no significant weather observed at this time

METAR text: EDDC 020820Z VRB04KT CAVOK 18/07 Q1019 NOSIG
Conditions at: EDDC (DRESDEN/KLOTZSCH, DE) observed 0820 UTC 02 June 2020
Temperature: 18.0°C (64°F)
Dewpoint: 7.0°C (45°F) [RH = 49%]
Pressure (altimeter): 30.09 inches Hg (1019.0 mb)
Winds: variable direction winds at 5 MPH (4 knots; 2.1 m/s)
Visibility: 6 or more miles (10+ km)
Ceiling: ceiling and visibility are OK
Clouds: unknown
Weather: no significant weather observed at this time

METAR text: EDDC 020750Z 33005KT 260V030 CAVOK 17/07 Q1020 NOSIG
Conditions at: EDDC (DRESDEN/KLOTZSCH, DE) observed 0750 UTC 02 June 2020
Temperature: 17.0°C (63°F)
Dewpoint: 7.0°C (45°F) [RH = 52%]
Pressure (altimeter): 30.12 inches Hg (1020.0 mb)
Winds: from the NNW (330 degrees) at 6 MPH (5 knots; 2.6 m/s)
Visibility: 6 or more miles (10+ km)
Ceiling: ceiling and visibility are OK
Clouds: unknown
Weather: no significant weather observed at this time

METAR text: EDDC 020720Z 34004KT 280V050 CAVOK 16/07 Q1020 NOSIG
Conditions at: EDDC (DRESDEN/KLOTZSCH, DE) observed 0720 UTC 02 June 2020
Temperature: 16.0°C (61°F)
Dewpoint: 7.0°C (45°F) [RH = 55%]
Pressure (altimeter): 30.12 inches Hg (1020.0 mb)
Winds: from the NNW (340 degrees) at 5 MPH (4 knots; 2.1 m/s)
Visibility: 6 or more miles (10+ km)
Ceiling: ceiling and visibility are OK
Clouds: unknown
Weather: no significant weather observed at this time

METAR text: EDDC 020650Z VRB03KT CAVOK 16/07 Q1020 NOSIG
Conditions at: EDDC (DRESDEN/KLOTZSCH, DE) observed 0650 UTC 02 June 2020
Temperature: 16.0°C (61°F)
Dewpoint: 7.0°C (45°F) [RH = 55%]
Pressure (altimeter): 30.12 inches Hg (1020.0 mb)
Winds: variable direction winds at 3 MPH (3 knots; 1.5 m/s)
Visibility: 6 or more miles (10+ km)
Ceiling: ceiling and visibility are OK
Clouds: unknown
Weather: no significant weather observed at this time

METAR text: EDDC 020620Z VRB03KT CAVOK 15/07 Q1020 NOSIG
Conditions at: EDDC (DRESDEN/KLOTZSCH, DE) observed 0620 UTC 02 June 2020
Temperature: 15.0°C (59°F)
Dewpoint: 7.0°C (45°F) [RH = 59%]
Pressure (altimeter): 30.12 inches Hg (1020.0 mb)
Winds: variable direction winds at 3 MPH (3 knots; 1.5 m/s)
Visibility: 6 or more miles (10+ km)
Ceiling: ceiling and visibility are OK
Clouds: unknown
Weather: no significant weather observed at this time

METAR text: EDDC 020550Z 01006KT CAVOK 14/07 Q1020 NOSIG
Conditions at: EDDC (DRESDEN/KLOTZSCH, DE) observed 0550 UTC 02 June 2020
Temperature: 14.0°C (57°F)
Dewpoint: 7.0°C (45°F) [RH = 63%]
Pressure (altimeter): 30.12 inches Hg (1020.0 mb)
Winds: from the N (10 degrees) at 7 MPH (6 knots; 3.1 m/s)
Visibility: 6 or more miles (10+ km)
Ceiling: ceiling and visibility are OK
Clouds: unknown
Weather: no significant weather observed at this time

METAR text: EDDC 020520Z 35005KT 310V020 CAVOK 13/07 Q1020 NOSIG
Conditions at: EDDC (DRESDEN/KLOTZSCH, DE) observed 0520 UTC 02 June 2020
Temperature: 13.0°C (55°F)
Dewpoint: 7.0°C (45°F) [RH = 67%]
Pressure (altimeter): 30.12 inches Hg (1020.0 mb)
Winds: from the N (350 degrees) at 6 MPH (5 knots; 2.6 m/s)
Visibility: 6 or more miles (10+ km)
Ceiling: ceiling and visibility are OK
Clouds: unknown
Weather: no significant weather observed at this time

METAR text: EDDC 020450Z 31005KT CAVOK 12/08 Q1020 NOSIG
Conditions at: EDDC (DRESDEN/KLOTZSCH, DE) observed 0450 UTC 02 June 2020
Temperature: 12.0°C (54°F)
Dewpoint: 8.0°C (46°F) [RH = 76%]
Pressure (altimeter): 30.12 inches Hg (1020.0 mb)
Winds: from the NW (310 degrees) at 6 MPH (5 knots; 2.6 m/s)
Visibility: 6 or more miles (10+ km)
Ceiling: ceiling and visibility are OK
Clouds: unknown
Weather: no significant weather observed at this time

METAR text: EDDC 020420Z VRB02KT CAVOK 11/08 Q1020 NOSIG
Conditions at: EDDC (DRESDEN/KLOTZSCH, DE) observed 0420 UTC 02 June 2020
Temperature: 11.0°C (52°F)
Dewpoint: 8.0°C (46°F) [RH = 82%]
Pressure (altimeter): 30.12 inches Hg (1020.0 mb)
Winds: variable direction winds at 2 MPH (2 knots; 1.0 m/s)
Visibility: 6 or more miles (10+ km)
Ceiling: ceiling and visibility are OK
Clouds: unknown
Weather: no significant weather observed at this time

Forecast for: AMD
Text: TAF AMD EDDC 031517Z 0315/0412 11007KT CAVOK
Forecast period: 1500 UTC 03 June 2020 to 1200 UTC 04 June 2020
Forecast type: FROM: standard forecast or significant change
Winds: from the ESE (110 degrees) at 8 MPH (7 knots; 3.6 m/s)
Visibility: 6 or more miles 10+ km)
Ceiling: unknown
Clouds: missing
Weather: NSW  (no significant weather)
Text: PROB30
Forecast period: 1800 to 2100 UTC 03 June 2020
Forecast type: TEMPORARY: The following changes expected for less than half the time period
Winds: from the W (260 degrees) at 23 MPH (20 knots; 10.3 m/s)
gusting to 40 MPH (35 knots; 18.0 m/s)
Visibility: 2.17 miles (3.49 km)
Ceiling: 4000 feet AGL
Clouds: broken clouds at 4000 feet AGL
Weather: TSRA  (rain associated with thunderstorm(s))
Text: TEMPO 0318/0321 26020G35KT 3500 TSRA BKN040CB
Forecast period: 1000 to 1200 UTC 04 June 2020
Forecast type: TEMPORARY: The following changes expected for less than half the time period
Winds: from the SSE (160 degrees) at 17 MPH (15 knots; 7.7 m/s)
gusting to 29 MPH (25 knots; 12.9 m/s)
Visibility: missing
Ceiling: unknown
Clouds: missing
Weather: no significant weather forecast for this period